Time;durP1;ratioP1;P1;durP2;ratioP2;P2;SDS_P1;SDS_P2;PMS_P1;PMS_P2;Temp;Humidity;BMP_temperature;BMP_pressure;BME280_temperature;BME280_humidity;BME280_pressure;Samples;Min_cycle;Max_cycle;Signal;HPM_P1;HPM_P2
2022/12/09 00:00:49;;;;;;;36.17;18.33;;;;;;;;;;5010386;28;20414;-69
2022/12/09 00:03:15;;;;;;;29.38;18.10;;;;;;;;;;4991647;28;20490;-69
2022/12/09 00:05:41;;;;;;;26.25;16.70;;;;;;;;;;5014959;28;20378;-69
2022/12/09 00:08:07;;;;;;;30.85;17.27;;;;;;;;;;4989156;28;20370;-72
2022/12/09 00:10:33;;;;;;;32.28;16.90;;;;;;;;;;5011626;28;20426;-70
2022/12/09 00:13:00;;;;;;;29.80;16.10;;;;;;;;;;5004561;28;20402;-69
2022/12/09 00:15:26;;;;;;;27.92;16.13;;;;;;;;;;4991791;28;20022;-69
2022/12/09 00:17:52;;;;;;;29.23;17.08;;;;;;;;;;4955029;28;20038;-69
2022/12/09 00:20:18;;;;;;;28.33;16.33;;;;;;;;;;4989570;28;20037;-71
2022/12/09 00:22:44;;;;;;;26.58;15.38;;;;;;;;;;5001683;28;20053;-70
2022/12/09 00:25:10;;;;;;;27.98;16.08;;;;;;;;;;5002940;28;20117;-70
2022/12/09 00:27:36;;;;;;;31.90;16.80;;;;;;;;;;4991539;28;20097;-69
2022/12/09 00:30:02;;;;;;;26.70;15.93;;;;;;;;;;4971762;28;20138;-69
2022/12/09 00:32:28;;;;;;;29.63;15.88;;;;;;;;;;4990866;28;20034;-69
2022/12/09 00:34:54;;;;;;;25.73;16.30;;;;;;;;;;4972246;28;20042;-71
2022/12/09 00:37:20;;;;;;;29.17;15.50;;;;;;;;;;4988452;28;20030;-69
2022/12/09 00:39:46;;;;;;;37.10;14.52;;;;;;;;;;4988606;28;20031;-69
2022/12/09 00:42:12;;;;;;;23.25;14.02;;;;;;;;;;4986898;28;20022;-70
2022/12/09 00:44:38;;;;;;;23.85;14.70;;;;;;;;;;4999657;28;20087;-70
2022/12/09 00:47:04;;;;;;;25.95;14.02;;;;;;;;;;4968497;28;20042;-69
2022/12/09 00:49:31;;;;;;;25.27;15.40;;;;;;;;;;4988552;28;20045;-71
2022/12/09 00:51:57;;;;;;;24.48;14.43;;;;;;;;;;4987942;28;20715;-71
2022/12/09 00:54:23;;;;;;;21.02;13.50;;;;;;;;;;4986020;28;20546;-69
2022/12/09 00:56:49;;;;;;;22.75;13.80;;;;;;;;;;4985836;28;20606;-71
2022/12/09 00:59:15;;;;;;;22.85;13.13;;;;;;;;;;4987100;28;20049;-69
2022/12/09 01:01:41;;;;;;;20.67;12.50;;;;;;;;;;4991588;28;20039;-69
2022/12/09 01:04:07;;;;;;;20.70;12.15;;;;;;;;;;4982773;28;20458;-70
2022/12/09 01:06:33;;;;;;;20.52;12.15;;;;;;;;;;4977135;28;20038;-70
2022/12/09 01:08:59;;;;;;;278.95;145.15;;;;;;;;;;4994326;28;20038;-72
2022/12/09 01:11:27;;;;;;;25.83;16.17;;;;;;;;;;4990822;28;20027;-70
2022/12/09 01:13:53;;;;;;;25.98;15.27;;;;;;;;;;5002992;28;20050;-75
2022/12/09 01:16:21;;;;;;;22.13;12.50;;;;;;;;;;5009634;28;20037;-70
2022/12/09 01:18:47;;;;;;;20.27;11.30;;;;;;;;;;5011468;28;20483;-71
2022/12/09 01:21:13;;;;;;;23.40;11.52;;;;;;;;;;5007942;28;20530;-70
2022/12/09 01:23:39;;;;;;;18.13;11.32;;;;;;;;;;5008930;28;20034;-70
2022/12/09 01:26:06;;;;;;;19.50;10.95;;;;;;;;;;4991734;28;20036;-70
2022/12/09 01:28:36;;;;;;;18.45;10.95;;;;;;;;;;5010151;28;20049;-69
2022/12/09 01:31:06;;;;;;;19.95;11.65;;;;;;;;;;5011061;28;20371;-69
2022/12/09 01:33:32;;;;;;;23.60;12.40;;;;;;;;;;5007914;28;20497;-69
2022/12/09 01:35:58;;;;;;;19.17;11.43;;;;;;;;;;5017371;28;20385;-69
2022/12/09 01:38:24;;;;;;;19.52;11.77;;;;;;;;;;5012913;28;20026;-69
2022/12/09 01:40:50;;;;;;;24.52;11.88;;;;;;;;;;4999354;28;20043;-71
2022/12/09 01:43:20;;;;;;;21.55;11.90;;;;;;;;;;5008565;28;20061;-69
2022/12/09 01:45:46;;;;;;;22.15;12.23;;;;;;;;;;5012648;28;20037;-69
2022/12/09 01:48:13;;;;;;;22.05;13.05;;;;;;;;;;5009103;28;20546;-69
2022/12/09 01:50:42;;;;;;;23.13;11.73;;;;;;;;;;5009773;28;20120;-71
2022/12/09 01:53:08;;;;;;;19.63;12.15;;;;;;;;;;4994191;28;20034;-73
2022/12/09 01:55:34;;;;;;;23.95;12.38;;;;;;;;;;5013229;28;20041;-69
2022/12/09 01:58:01;;;;;;;21.48;11.90;;;;;;;;;;5011530;28;20028;-70
2022/12/09 02:00:27;;;;;;;20.10;12.15;;;;;;;;;;5021311;28;20018;-70
2022/12/09 02:02:54;;;;;;;21.95;12.68;;;;;;;;;;5010769;28;20225;-69
2022/12/09 02:05:23;;;;;;;25.08;12.65;;;;;;;;;;4993164;28;20053;-70
2022/12/09 02:07:49;;;;;;;20.77;11.00;;;;;;;;;;5010525;28;20022;-70
2022/12/09 02:10:15;;;;;;;17.80;11.27;;;;;;;;;;5018793;28;20084;-72
2022/12/09 02:12:47;;;;;;;20.45;12.00;;;;;;;;;;5010447;28;20493;-69
2022/12/09 02:15:34;;;;;;;21.70;12.20;;;;;;;;;;5013059;28;20052;-69
2022/12/09 02:18:01;;;;;;;24.85;12.35;;;;;;;;;;5012259;28;20450;-69
2022/12/09 02:20:30;;;;;;;23.33;12.48;;;;;;;;;;5015588;28;20087;-69
2022/12/09 02:23:09;;;;;;;27.52;13.40;;;;;;;;;;4990335;28;20042;-69
2022/12/09 02:25:40;;;;;;;22.40;13.02;;;;;;;;;;5002899;28;20470;-69
2022/12/09 02:28:29;;;;;;;19.52;12.45;;;;;;;;;;5006212;28;20386;-71
2022/12/09 02:30:55;;;;;;;19.85;11.80;;;;;;;;;;4998689;28;20113;-70
2022/12/09 02:33:29;;;;;;;21.40;12.55;;;;;;;;;;4993473;28;20038;-72
2022/12/09 02:35:58;;;;;;;22.10;12.23;;;;;;;;;;4995635;28;20068;-72
2022/12/09 02:38:30;;;;;;;17.73;11.15;;;;;;;;;;4992450;28;20188;-69
2022/12/09 02:41:00;;;;;;;22.67;12.45;;;;;;;;;;5010138;28;20041;-69
2022/12/09 02:43:28;;;;;;;18.02;12.25;;;;;;;;;;4992422;28;20382;-72
2022/12/09 02:45:55;;;;;;;23.83;12.65;;;;;;;;;;5012100;28;20029;-69
2022/12/09 02:48:24;;;;;;;20.23;13.07;;;;;;;;;;5009172;28;20029;-69
2022/12/09 02:50:51;;;;;;;22.13;12.65;;;;;;;;;;4993395;28;20033;-69
2022/12/09 02:53:17;;;;;;;19.77;12.48;;;;;;;;;;5006702;28;20038;-70
2022/12/09 02:55:44;;;;;;;22.60;12.05;;;;;;;;;;5008425;28;20029;-69
2022/12/09 02:58:11;;;;;;;20.73;12.43;;;;;;;;;;5015868;28;20030;-69
2022/12/09 03:00:37;;;;;;;21.90;11.95;;;;;;;;;;5016392;28;20034;-69
2022/12/09 03:03:04;;;;;;;20.98;12.85;;;;;;;;;;5008439;28;20038;-69
2022/12/09 03:05:33;;;;;;;24.88;12.55;;;;;;;;;;5011625;28;20033;-69
2022/12/09 03:08:02;;;;;;;24.52;12.05;;;;;;;;;;5015430;28;20030;-70
2022/12/09 03:10:33;;;;;;;22.10;12.27;;;;;;;;;;5010493;28;20030;-72
2022/12/09 03:13:04;;;;;;;22.83;12.60;;;;;;;;;;4997963;28;20053;-71
2022/12/09 03:15:33;;;;;;;22.25;11.63;;;;;;;;;;5012171;28;20022;-69
2022/12/09 03:18:01;;;;;;;22.75;12.25;;;;;;;;;;4992697;28;20355;-69
2022/12/09 03:20:29;;;;;;;20.42;12.18;;;;;;;;;;5007307;28;20096;-68
2022/12/09 03:22:58;;;;;;;26.73;13.18;;;;;;;;;;5008540;28;20026;-69
2022/12/09 03:25:28;;;;;;;23.05;12.20;;;;;;;;;;4993711;28;20521;-70
2022/12/09 03:28:05;;;;;;;18.40;10.90;;;;;;;;;;4997823;28;20129;-71
2022/12/09 03:30:32;;;;;;;22.38;11.93;;;;;;;;;;5010648;28;20190;-69
2022/12/09 03:32:58;;;;;;;22.17;13.25;;;;;;;;;;5017437;28;20037;-70
2022/12/09 03:35:29;;;;;;;17.92;11.68;;;;;;;;;;5009863;28;20041;-71
2022/12/09 03:37:56;;;;;;;24.95;12.10;;;;;;;;;;4995868;28;20026;-70
2022/12/09 03:40:24;;;;;;;21.42;12.00;;;;;;;;;;5016554;28;20383;-69
2022/12/09 03:42:55;;;;;;;23.58;12.45;;;;;;;;;;5009592;28;20033;-70
2022/12/09 03:45:23;;;;;;;21.67;12.60;;;;;;;;;;5009838;28;20029;-70
2022/12/09 03:47:49;;;;;;;24.58;11.90;;;;;;;;;;5011289;28;20033;-71
2022/12/09 03:50:15;;;;;;;23.05;13.85;;;;;;;;;;5009921;28;20042;-69
2022/12/09 03:52:44;;;;;;;19.10;12.45;;;;;;;;;;5001793;28;20038;-69
2022/12/09 03:55:29;;;;;;;22.52;12.57;;;;;;;;;;5006637;28;20030;-71
2022/12/09 03:57:57;;;;;;;17.42;11.93;;;;;;;;;;5002643;28;20053;-71
2022/12/09 04:00:23;;;;;;;22.05;12.90;;;;;;;;;;5015834;28;20034;-70
2022/12/09 04:02:49;;;;;;;21.23;12.23;;;;;;;;;;4999389;28;20501;-70
2022/12/09 04:05:15;;;;;;;24.00;13.00;;;;;;;;;;5014240;28;20037;-69
2022/12/09 04:07:42;;;;;;;22.05;12.38;;;;;;;;;;5007353;28;20030;-70
2022/12/09 04:10:08;;;;;;;24.10;13.98;;;;;;;;;;5007328;28;20037;-70
2022/12/09 04:12:34;;;;;;;21.27;12.35;;;;;;;;;;5019396;28;20037;-69
2022/12/09 04:15:00;;;;;;;18.77;12.93;;;;;;;;;;5019530;28;20034;-69
2022/12/09 04:17:26;;;;;;;29.48;13.63;;;;;;;;;;4990332;28;20038;-69
2022/12/09 04:19:52;;;;;;;20.17;11.95;;;;;;;;;;5008416;28;20117;-68
2022/12/09 04:22:18;;;;;;;23.70;12.52;;;;;;;;;;5018628;28;20132;-69
2022/12/09 04:24:44;;;;;;;21.70;12.88;;;;;;;;;;5012022;28;20034;-68
2022/12/09 04:27:11;;;;;;;17.20;11.85;;;;;;;;;;4991224;28;20065;-69
2022/12/09 04:29:37;;;;;;;20.63;12.25;;;;;;;;;;5006536;28;20026;-70
2022/12/09 04:32:03;;;;;;;20.17;11.77;;;;;;;;;;5007085;28;20044;-70
2022/12/09 04:34:29;;;;;;;19.65;11.55;;;;;;;;;;5014061;28;20042;-69
2022/12/09 04:36:55;;;;;;;22.60;12.13;;;;;;;;;;4991384;28;20471;-69
2022/12/09 04:39:21;;;;;;;25.38;12.38;;;;;;;;;;5013290;28;20475;-70
2022/12/09 04:41:47;;;;;;;19.98;11.48;;;;;;;;;;5006709;28;20038;-71
2022/12/09 04:44:13;;;;;;;18.60;11.85;;;;;;;;;;5008574;28;20030;-69
2022/12/09 04:46:39;;;;;;;23.30;12.30;;;;;;;;;;5012421;28;20041;-69
2022/12/09 04:49:05;;;;;;;19.50;11.45;;;;;;;;;;5007725;28;20425;-72
2022/12/09 04:51:31;;;;;;;19.20;11.60;;;;;;;;;;5001921;28;20071;-72
2022/12/09 04:53:57;;;;;;;22.42;11.57;;;;;;;;;;5013045;28;20042;-70
2022/12/09 04:56:24;;;;;;;20.50;12.02;;;;;;;;;;5013471;28;20026;-70
2022/12/09 04:58:50;;;;;;;20.90;11.70;;;;;;;;;;5010846;28;20033;-70
2022/12/09 05:01:20;;;;;;;19.92;12.10;;;;;;;;;;5010037;28;20029;-70
2022/12/09 05:03:53;;;;;;;23.88;12.30;;;;;;;;;;5008644;28;20049;-70
2022/12/09 05:06:19;;;;;;;18.42;11.20;;;;;;;;;;5010937;28;20034;-68
2022/12/09 05:08:46;;;;;;;21.60;11.45;;;;;;;;;;5010830;28;20120;-70
2022/12/09 05:11:13;;;;;;;20.27;11.25;;;;;;;;;;5007688;28;20041;-69
2022/12/09 05:13:39;;;;;;;20.10;12.65;;;;;;;;;;4999093;28;20057;-69
2022/12/09 05:16:07;;;;;;;28.90;15.65;;;;;;;;;;4999072;28;20474;-70
2022/12/09 05:18:33;;;;;;;33.88;17.52;;;;;;;;;;5006721;28;20038;-69
2022/12/09 05:20:59;;;;;;;25.70;15.15;;;;;;;;;;5009196;28;20025;-68
2022/12/09 05:23:25;;;;;;;25.13;13.77;;;;;;;;;;5006087;28;20141;-67
2022/12/09 05:25:52;;;;;;;24.65;13.80;;;;;;;;;;4992551;28;20045;-68
2022/12/09 05:28:18;;;;;;;34.17;17.15;;;;;;;;;;5005423;28;20088;-68
2022/12/09 05:30:44;;;;;;;28.85;14.35;;;;;;;;;;5006084;28;20316;-72
2022/12/09 05:33:10;;;;;;;25.40;14.48;;;;;;;;;;5011478;28;20437;-68
2022/12/09 05:35:36;;;;;;;26.15;13.30;;;;;;;;;;5008751;28;20465;-67
2022/12/09 05:38:02;;;;;;;27.70;13.55;;;;;;;;;;5009185;28;20494;-68
2022/12/09 05:40:28;;;;;;;26.38;15.20;;;;;;;;;;4989892;28;20053;-67
2022/12/09 05:42:54;;;;;;;27.65;14.13;;;;;;;;;;5009092;28;20034;-67
2022/12/09 05:45:20;;;;;;;31.45;16.85;;;;;;;;;;5014575;28;20033;-69
2022/12/09 05:47:47;;;;;;;35.20;16.38;;;;;;;;;;4992835;28;20798;-69
2022/12/09 05:50:13;;;;;;;34.25;16.30;;;;;;;;;;4999913;28;20040;-69
2022/12/09 05:52:39;;;;;;;27.95;14.68;;;;;;;;;;5001319;28;20117;-69
2022/12/09 05:55:05;;;;;;;33.83;16.98;;;;;;;;;;5012113;28;20061;-69
2022/12/09 05:57:33;;;;;;;33.22;15.50;;;;;;;;;;5020275;28;20026;-69
2022/12/09 05:59:59;;;;;;;33.00;15.80;;;;;;;;;;5016469;28;20025;-69
2022/12/09 06:02:25;;;;;;;31.33;14.60;;;;;;;;;;5011736;28;20121;-69
2022/12/09 06:04:51;;;;;;;32.58;15.82;;;;;;;;;;4995080;28;20038;-69
2022/12/09 06:07:17;;;;;;;33.67;17.33;;;;;;;;;;5015829;28;20417;-70
2022/12/09 06:09:44;;;;;;;31.92;16.90;;;;;;;;;;5010501;28;20366;-75
2022/12/09 06:12:10;;;;;;;35.60;18.42;;;;;;;;;;5007507;28;20033;-71
2022/12/09 06:14:36;;;;;;;28.60;15.45;;;;;;;;;;5006620;28;20474;-70
2022/12/09 06:17:02;;;;;;;31.05;15.63;;;;;;;;;;4992146;28;20029;-71
2022/12/09 06:19:28;;;;;;;30.95;15.65;;;;;;;;;;5010875;28;20461;-70
2022/12/09 06:21:54;;;;;;;33.65;16.85;;;;;;;;;;5004263;28;20094;-70
2022/12/09 06:24:20;;;;;;;28.70;15.32;;;;;;;;;;5013595;28;20034;-70
2022/12/09 06:26:46;;;;;;;88.88;39.17;;;;;;;;;;5011880;28;20033;-71
2022/12/09 06:29:12;;;;;;;29.52;15.70;;;;;;;;;;5009922;28;20520;-71
2022/12/09 06:31:39;;;;;;;53.75;28.02;;;;;;;;;;5012375;28;20029;-70
2022/12/09 06:34:05;;;;;;;32.85;17.30;;;;;;;;;;5012258;28;20034;-70
2022/12/09 06:36:31;;;;;;;30.45;16.52;;;;;;;;;;5011890;28;20022;-70
2022/12/09 06:38:58;;;;;;;30.80;15.63;;;;;;;;;;5006753;28;20042;-71
2022/12/09 06:41:24;;;;;;;29.42;16.73;;;;;;;;;;4993304;28;20471;-69
2022/12/09 06:43:50;;;;;;;30.15;15.93;;;;;;;;;;5026277;28;20493;-70
2022/12/09 06:46:21;;;;;;;31.67;16.48;;;;;;;;;;5008559;28;20026;-69
2022/12/09 06:48:48;;;;;;;30.73;17.85;;;;;;;;;;5014389;28;20034;-70
2022/12/09 06:51:14;;;;;;;29.02;16.70;;;;;;;;;;5011517;28;20085;-71
2022/12/09 06:53:40;;;;;;;28.20;16.02;;;;;;;;;;5014212;28;20429;-70
2022/12/09 06:56:07;;;;;;;27.15;16.33;;;;;;;;;;5012810;28;20041;-70
2022/12/09 06:58:33;;;;;;;30.85;16.90;;;;;;;;;;5017965;28;20045;-70
2022/12/09 07:01:04;;;;;;;29.00;16.70;;;;;;;;;;5013607;28;20087;-71
2022/12/09 07:03:30;;;;;;;99.45;49.30;;;;;;;;;;4993926;28;20493;-70
2022/12/09 07:05:56;;;;;;;41.47;26.45;;;;;;;;;;5005795;28;20463;-70
2022/12/09 07:08:22;;;;;;;33.03;16.70;;;;;;;;;;5011054;28;20034;-70
2022/12/09 07:10:48;;;;;;;32.40;16.35;;;;;;;;;;5008747;28;20061;-70
2022/12/09 07:13:14;;;;;;;30.40;16.20;;;;;;;;;;5002545;28;20062;-71
2022/12/09 07:15:40;;;;;;;31.60;17.75;;;;;;;;;;5011243;28;20026;-70
2022/12/09 07:18:07;;;;;;;32.45;17.70;;;;;;;;;;5019280;28;20033;-69
2022/12/09 07:20:33;;;;;;;30.40;17.25;;;;;;;;;;5016757;28;20029;-69
2022/12/09 07:22:59;;;;;;;30.77;18.58;;;;;;;;;;5009918;28;20033;-69
2022/12/09 07:25:25;;;;;;;34.88;17.75;;;;;;;;;;5008111;28;20442;-69
2022/12/09 07:27:51;;;;;;;30.08;17.02;;;;;;;;;;4984581;28;20133;-68
2022/12/09 07:30:17;;;;;;;38.72;19.73;;;;;;;;;;5016363;28;20076;-70
2022/12/09 07:32:43;;;;;;;46.85;20.90;;;;;;;;;;5007598;28;20038;-69
2022/12/09 07:35:09;;;;;;;38.15;18.77;;;;;;;;;;5015792;28;20069;-69
2022/12/09 07:37:35;;;;;;;46.28;21.92;;;;;;;;;;5015085;28;20117;-69
2022/12/09 07:40:01;;;;;;;49.88;24.92;;;;;;;;;;5020138;28;20386;-69
2022/12/09 07:42:27;;;;;;;51.20;22.10;;;;;;;;;;5013861;28;20505;-71
2022/12/09 07:44:53;;;;;;;51.45;22.67;;;;;;;;;;5004586;28;20041;-69
2022/12/09 07:47:19;;;;;;;84.07;26.63;;;;;;;;;;5012882;28;20049;-68
2022/12/09 07:49:46;;;;;;;63.13;24.60;;;;;;;;;;4996972;28;20022;-70
2022/12/09 07:52:12;;;;;;;160.68;25.58;;;;;;;;;;5007599;28;20447;-70
2022/12/09 07:54:39;;;;;;;195.32;29.70;;;;;;;;;;5005828;28;20112;-70
2022/12/09 07:57:05;;;;;;;187.88;27.17;;;;;;;;;;4996002;28;20041;-68
2022/12/09 07:59:31;;;;;;;239.70;29.50;;;;;;;;;;5009128;28;20030;-68
2022/12/09 08:01:57;;;;;;;197.55;31.70;;;;;;;;;;5000816;28;20042;-69
2022/12/09 08:04:23;;;;;;;223.13;33.17;;;;;;;;;;5011778;28;20037;-69
2022/12/09 08:06:49;;;;;;;281.35;34.50;;;;;;;;;;5009687;28;20029;-69
2022/12/09 08:09:15;;;;;;;431.38;44.40;;;;;;;;;;5012220;28;20097;-68
2022/12/09 08:11:41;;;;;;;480.95;43.75;;;;;;;;;;4994396;28;20022;-69
2022/12/09 08:14:08;;;;;;;341.45;39.10;;;;;;;;;;5003194;28;20503;-68
2022/12/09 08:16:34;;;;;;;323.45;34.33;;;;;;;;;;5017229;28;20104;-68
2022/12/09 08:19:00;;;;;;;145.48;26.00;;;;;;;;;;5012927;28;20022;-69
2022/12/09 08:21:31;;;;;;;276.08;35.72;;;;;;;;;;4997674;28;20029;-68
2022/12/09 08:23:58;;;;;;;164.60;26.92;;;;;;;;;;5008609;28;20065;-70
2022/12/09 08:26:25;;;;;;;250.85;35.20;;;;;;;;;;4986202;28;20022;-70
2022/12/09 08:28:51;;;;;;;243.70;33.15;;;;;;;;;;5012002;28;20037;-69
2022/12/09 08:31:18;;;;;;;173.95;27.33;;;;;;;;;;5009779;28;20042;-68
2022/12/09 08:33:45;;;;;;;140.95;29.45;;;;;;;;;;5003053;28;20099;-68
2022/12/09 08:36:13;;;;;;;179.65;33.25;;;;;;;;;;4991824;28;20128;-68
2022/12/09 08:38:39;;;;;;;171.63;33.00;;;;;;;;;;5007939;28;20387;-69
2022/12/09 08:41:34;;;;;;;135.45;27.60;;;;;;;;;;5007771;28;20040;-68
2022/12/09 08:44:04;;;;;;;88.03;29.88;;;;;;;;;;4999883;28;20383;-68
2022/12/09 08:46:31;;;;;;;98.13;26.70;;;;;;;;;;5005117;28;20034;-68
2022/12/09 08:48:58;;;;;;;124.13;29.20;;;;;;;;;;5005265;28;20102;-69
2022/12/09 08:51:24;;;;;;;145.77;28.98;;;;;;;;;;4993716;28;20033;-69
2022/12/09 08:53:50;;;;;;;126.15;29.77;;;;;;;;;;5011030;28;20045;-69
2022/12/09 08:56:16;;;;;;;102.18;30.27;;;;;;;;;;5011146;28;20092;-68
2022/12/09 08:58:42;;;;;;;96.80;27.52;;;;;;;;;;5007562;28;20042;-69
2022/12/09 09:01:14;;;;;;;139.25;26.83;;;;;;;;;;5005545;28;20097;-68
2022/12/09 09:03:40;;;;;;;114.68;27.20;;;;;;;;;;5008186;28;20471;-69
2022/12/09 09:06:06;;;;;;;132.70;29.85;;;;;;;;;;5005936;28;20033;-70
2022/12/09 09:08:32;;;;;;;133.73;27.58;;;;;;;;;;5003896;28;20033;-70
2022/12/09 09:10:58;;;;;;;102.68;27.17;;;;;;;;;;5004007;28;20034;-70
2022/12/09 09:13:25;;;;;;;126.78;24.73;;;;;;;;;;5006038;28;20118;-68
2022/12/09 09:15:51;;;;;;;123.55;26.02;;;;;;;;;;5009242;28;20037;-68
2022/12/09 09:18:17;;;;;;;72.70;24.42;;;;;;;;;;5009079;28;20037;-67
2022/12/09 09:20:46;;;;;;;95.63;25.85;;;;;;;;;;4992882;28;20026;-67
2022/12/09 09:23:12;;;;;;;77.82;24.92;;;;;;;;;;5010781;28;20041;-69
2022/12/09 09:25:42;;;;;;;106.78;28.00;;;;;;;;;;5020148;28;20025;-69
2022/12/09 09:28:09;;;;;;;286.65;33.97;;;;;;;;;;5011012;28;20033;-69
2022/12/09 09:30:35;;;;;;;183.07;28.83;;;;;;;;;;5021660;28;20076;-70
2022/12/09 09:33:01;;;;;;;146.35;28.58;;;;;;;;;;4994720;28;20029;-70
2022/12/09 09:35:27;;;;;;;233.20;32.47;;;;;;;;;;5013721;28;21719;-71
2022/12/09 09:37:53;;;;;;;185.63;30.85;;;;;;;;;;4999992;28;20037;-72
2022/12/09 09:40:20;;;;;;;232.40;30.05;;;;;;;;;;5011186;28;20052;-69
2022/12/09 09:42:48;;;;;;;198.43;33.08;;;;;;;;;;5008657;28;20065;-69
2022/12/09 09:45:16;;;;;;;273.20;37.28;;;;;;;;;;5005156;28;20040;-70
2022/12/09 09:47:44;;;;;;;171.88;31.98;;;;;;;;;;5011694;28;20030;-70
2022/12/09 09:50:17;;;;;;;149.82;28.63;;;;;;;;;;5010403;28;20096;-70
2022/12/09 09:52:43;;;;;;;141.43;30.35;;;;;;;;;;5002166;28;20540;-71
2022/12/09 09:55:16;;;;;;;106.20;28.55;;;;;;;;;;5018843;28;20034;-70
2022/12/09 09:57:42;;;;;;;101.60;27.35;;;;;;;;;;5002749;28;20040;-71
2022/12/09 10:00:22;;;;;;;98.82;25.98;;;;;;;;;;5000383;28;20034;-69
2022/12/09 10:02:51;;;;;;;116.22;27.92;;;;;;;;;;5002852;28;20040;-72
2022/12/09 10:05:24;;;;;;;93.63;25.27;;;;;;;;;;5010776;28;20034;-72
2022/12/09 10:07:56;;;;;;;82.80;25.00;;;;;;;;;;5006058;28;20029;-68
2022/12/09 10:10:38;;;;;;;77.30;22.55;;;;;;;;;;5007884;28;20037;-70
2022/12/09 10:13:23;;;;;;;73.03;25.80;;;;;;;;;;5008223;28;20584;-71
2022/12/09 10:15:52;;;;;;;92.32;26.13;;;;;;;;;;4994030;28;20038;-69
2022/12/09 10:18:24;;;;;;;73.63;24.80;;;;;;;;;;4993373;28;20105;-71
2022/12/09 10:20:50;;;;;;;150.95;26.30;;;;;;;;;;5012198;28;20049;-70
2022/12/09 10:23:17;;;;;;;109.53;28.80;;;;;;;;;;5024277;28;20041;-69
2022/12/09 10:25:54;;;;;;;75.88;24.77;;;;;;;;;;4999079;28;20032;-71
2022/12/09 10:28:22;;;;;;;141.15;25.45;;;;;;;;;;5016003;28;20038;-70
2022/12/09 10:30:49;;;;;;;135.35;28.17;;;;;;;;;;5018690;28;20030;-70
2022/12/09 10:33:17;;;;;;;104.78;28.70;;;;;;;;;;5024246;28;20478;-69
2022/12/09 10:35:43;;;;;;;102.28;27.35;;;;;;;;;;5016456;28;20029;-70
2022/12/09 10:38:11;;;;;;;104.20;26.02;;;;;;;;;;5013028;28;20399;-71
2022/12/09 10:40:48;;;;;;;86.95;29.05;;;;;;;;;;5027519;28;20390;-69
2022/12/09 10:43:42;;;;;;;101.28;23.05;;;;;;;;;;5025513;28;20153;-69
2022/12/09 10:46:10;;;;;;;85.00;24.30;;;;;;;;;;5020123;28;20414;-70
2022/12/09 10:48:40;;;;;;;84.97;25.75;;;;;;;;;;5002608;28;20025;-70
2022/12/09 10:51:12;;;;;;;87.32;25.15;;;;;;;;;;5006848;28;20060;-69
2022/12/09 10:53:43;;;;;;;72.88;24.38;;;;;;;;;;5006482;28;20411;-70
2022/12/09 10:56:16;;;;;;;81.57;24.17;;;;;;;;;;5007220;28;20041;-70
2022/12/09 10:58:42;;;;;;;68.93;25.33;;;;;;;;;;5009129;28;20013;-70
2022/12/09 11:01:10;;;;;;;85.95;24.15;;;;;;;;;;5006775;28;20038;-72
2022/12/09 11:03:40;;;;;;;91.72;23.33;;;;;;;;;;5010861;28;20132;-69
2022/12/09 11:06:23;;;;;;;89.80;24.92;;;;;;;;;;5000115;28;20057;-72
2022/12/09 11:08:51;;;;;;;147.15;26.58;;;;;;;;;;4989225;28;20025;-71
2022/12/09 11:11:18;;;;;;;66.47;27.48;;;;;;;;;;5007456;28;20034;-73
2022/12/09 11:13:44;;;;;;;92.47;26.40;;;;;;;;;;5010524;28;20058;-71
2022/12/09 11:16:11;;;;;;;99.57;36.67;;;;;;;;;;5005409;28;20479;-71
2022/12/09 11:18:47;;;;;;;91.80;27.13;;;;;;;;;;5004065;28;20022;-71
2022/12/09 11:21:33;;;;;;;47.45;23.42;;;;;;;;;;5003989;28;20513;-71
2022/12/09 11:23:59;;;;;;;150.35;27.67;;;;;;;;;;5003193;28;20056;-71
2022/12/09 11:26:32;;;;;;;63.47;21.85;;;;;;;;;;4982929;28;20044;-70
2022/12/09 11:29:00;;;;;;;75.30;24.27;;;;;;;;;;5005953;28;20030;-69
2022/12/09 11:31:27;;;;;;;71.60;26.65;;;;;;;;;;5007925;28;20030;-71
2022/12/09 11:33:54;;;;;;;62.85;29.45;;;;;;;;;;4991177;28;20034;-71
2022/12/09 11:36:22;;;;;;;75.10;28.58;;;;;;;;;;5004364;28;20053;-70
2022/12/09 11:38:50;;;;;;;62.00;24.63;;;;;;;;;;5006860;28;20029;-71
2022/12/09 11:44:21;;;;;;;93.45;24.30;;;;;;;;;;5009300;28;20040;-70
2022/12/09 11:46:54;;;;;;;77.28;23.60;;;;;;;;;;5004701;28;20801;-71
2022/12/09 11:49:20;;;;;;;51.22;25.27;;;;;;;;;;5005431;28;20041;-70
2022/12/09 11:51:59;;;;;;;94.57;26.40;;;;;;;;;;5004062;28;20552;-70
2022/12/09 11:54:27;;;;;;;57.03;26.05;;;;;;;;;;5004836;28;20022;-70
2022/12/09 11:56:56;;;;;;;60.63;26.95;;;;;;;;;;5003272;28;20038;-69
2022/12/09 11:59:24;;;;;;;60.72;28.00;;;;;;;;;;5006685;28;20018;-69
2022/12/09 12:02:11;;;;;;;59.60;29.52;;;;;;;;;;5005358;28;20026;-72
2022/12/09 12:04:58;;;;;;;54.28;25.77;;;;;;;;;;5000118;28;20209;-70
2022/12/09 12:07:30;;;;;;;52.88;30.33;;;;;;;;;;5003447;28;20034;-70
2022/12/09 12:09:57;;;;;;;60.47;33.27;;;;;;;;;;5004108;28;20033;-71
2022/12/09 12:12:26;;;;;;;54.67;28.85;;;;;;;;;;5006026;28;20030;-72
2022/12/09 12:14:53;;;;;;;45.15;25.88;;;;;;;;;;5008082;28;20532;-69
2022/12/09 12:17:31;;;;;;;43.63;26.05;;;;;;;;;;4987570;28;20120;-70
2022/12/09 12:19:57;;;;;;;44.88;24.30;;;;;;;;;;5006404;28;20478;-71
2022/12/09 12:22:38;;;;;;;40.35;23.75;;;;;;;;;;5009073;28;20026;-72
2022/12/09 12:25:12;;;;;;;39.47;23.83;;;;;;;;;;5020072;28;20322;-71
2022/12/09 12:27:44;;;;;;;49.65;25.85;;;;;;;;;;4998222;28;20021;-70
2022/12/09 12:30:16;;;;;;;54.45;25.60;;;;;;;;;;5016102;28;20033;-70
2022/12/09 12:32:45;;;;;;;53.88;26.92;;;;;;;;;;5018303;28;20026;-70
2022/12/09 12:35:11;;;;;;;55.42;27.70;;;;;;;;;;5020089;28;20079;-71
2022/12/09 12:37:56;;;;;;;49.28;26.77;;;;;;;;;;5024524;28;20143;-69
2022/12/09 12:40:28;;;;;;;47.97;25.88;;;;;;;;;;4997916;28;20509;-69
2022/12/09 12:48:45;;;;;;;51.40;27.17;;;;;;;;;;5023352;28;20052;-69
2022/12/09 12:51:18;;;;;;;47.85;26.58;;;;;;;;;;5019915;28;20041;-69
2022/12/09 12:53:53;;;;;;;49.13;27.73;;;;;;;;;;4996842;28;20411;-70
2022/12/09 12:56:22;;;;;;;51.00;28.05;;;;;;;;;;5014456;28;20070;-71
2022/12/09 12:58:51;;;;;;;54.65;28.90;;;;;;;;;;5029581;28;20029;-70
2022/12/09 13:01:17;;;;;;;46.95;27.00;;;;;;;;;;5023932;28;20045;-70
2022/12/09 13:04:01;;;;;;;50.72;28.52;;;;;;;;;;5018261;28;20461;-71
2022/12/09 13:06:33;;;;;;;49.58;26.83;;;;;;;;;;5010424;28;20331;-70
2022/12/09 13:09:02;;;;;;;52.13;28.33;;;;;;;;;;5027603;28;20033;-70
2022/12/09 13:11:37;;;;;;;49.80;27.40;;;;;;;;;;5012010;28;20375;-71
2022/12/09 13:14:06;;;;;;;50.80;28.08;;;;;;;;;;5008515;28;20053;-70
2022/12/09 13:16:34;;;;;;;49.47;27.88;;;;;;;;;;5016829;28;20029;-72
2022/12/09 13:19:06;;;;;;;53.83;28.77;;;;;;;;;;5009590;28;20168;-70
2022/12/09 13:21:32;;;;;;;51.63;26.73;;;;;;;;;;5019719;28;20094;-71
2022/12/09 13:24:01;;;;;;;50.15;27.50;;;;;;;;;;5020225;28;20145;-70
2022/12/09 13:26:33;;;;;;;50.42;28.02;;;;;;;;;;5015355;28;20034;-71
2022/12/09 13:29:04;;;;;;;50.33;26.40;;;;;;;;;;5014189;28;20040;-70
2022/12/09 13:31:32;;;;;;;50.50;26.05;;;;;;;;;;5015627;28;20018;-71
2022/12/09 13:34:17;;;;;;;53.30;26.50;;;;;;;;;;5018775;28;20104;-70
2022/12/09 13:36:47;;;;;;;54.83;27.83;;;;;;;;;;5028833;28;20111;-70
2022/12/09 13:39:33;;;;;;;54.70;29.27;;;;;;;;;;5001175;28;20064;-70
2022/12/09 13:44:47;;;;;;;51.08;27.73;;;;;;;;;;5004527;28;20032;-70
2022/12/09 13:47:14;;;;;;;58.28;29.27;;;;;;;;;;5016273;28;20033;-72
2022/12/09 13:49:41;;;;;;;57.50;29.38;;;;;;;;;;5012835;28;20099;-71
2022/12/09 13:52:07;;;;;;;52.10;28.00;;;;;;;;;;5001031;28;20037;-70
2022/12/09 13:54:34;;;;;;;56.28;29.25;;;;;;;;;;5026382;28;20092;-71
2022/12/09 13:57:09;;;;;;;48.55;27.55;;;;;;;;;;5030075;28;20363;-70
2022/12/09 13:59:38;;;;;;;59.58;29.42;;;;;;;;;;5009996;28;20052;-70
2022/12/09 14:02:12;;;;;;;53.47;28.30;;;;;;;;;;5028354;28;20322;-70
2022/12/09 14:05:05;;;;;;;60.65;28.73;;;;;;;;;;5015130;28;20052;-71
2022/12/09 14:07:40;;;;;;;53.83;29.48;;;;;;;;;;5019329;28;20123;-70
2022/12/09 14:10:26;;;;;;;59.22;26.75;;;;;;;;;;5018043;28;20033;-70
2022/12/09 14:12:56;;;;;;;50.67;27.20;;;;;;;;;;5024452;28;20757;-70
2022/12/09 14:15:27;;;;;;;52.92;28.50;;;;;;;;;;5017440;28;20049;-70
2022/12/09 14:17:57;;;;;;;53.90;28.50;;;;;;;;;;5001932;28;20025;-70
2022/12/09 14:20:41;;;;;;;58.47;29.75;;;;;;;;;;5029900;28;20029;-70
2022/12/09 14:23:11;;;;;;;51.90;26.67;;;;;;;;;;5016300;28;20044;-70
2022/12/09 14:25:37;;;;;;;53.33;28.38;;;;;;;;;;4997952;28;20039;-70
2022/12/09 14:28:09;;;;;;;50.78;28.25;;;;;;;;;;5016069;28;20109;-70
2022/12/09 14:30:53;;;;;;;54.67;27.02;;;;;;;;;;4996713;28;20028;-70
2022/12/09 14:33:26;;;;;;;59.05;29.38;;;;;;;;;;5029440;28;20033;-70